Rogers, MN (55374)

8:56 AM CDT on August 29, 2015 (GMT -0500)
KMNOSSEO7 | | Change Station
CLOSE
Current Station
Personal Weather Station
Location: Rogers, MN
Elevation: 991 ft
Nearby Weather Stations

Elev 991 ft 45.17 °N, 93.56 °W | Updated 1 minute ago

Clear
Clear
59.2 °F
Feels Like 59.2 °F
N
0.0
Wind Variable Wind from East
Gusts 0.0 mph

Today
High -- | Low -- °F
--% Chance of Precip.
Yesterday
High -- | Low -- °F
Precip. -- in
6:32 AM 7:57 PM
Full, 100% visible
Pressure 30.08 in
Visibility 5.0 miles
Clouds Clear
Dew Point 59 °F
Humidity 99%
Rainfall 0.00 in
Snow Depth Not available.
UV 2 out of 12
Pollen 8.30 out of 12
Air Quality Not available.
Flu Activity Not available.
METAR KCFE 291334Z AUTO 13003KT 5SM BR CLR 14/13 A3008 RMK AO2 T01420130
Pressure 30.08 in
Visibility 5.0 miles
Clouds Clear
Dew Point 59 °F
Humidity 99%
Rainfall 0.00 in
Snow Depth Not available.
UV 2 out of 12
Pollen 8.30 out of 12
Air Quality Not available.
Flu Activity Not available.
METAR KCFE 291334Z AUTO 13003KT 5SM BR CLR 14/13 A3008 RMK AO2 T01420130

10-Day Weather Forecast

×

Almanac

Astronomy

Aug. 29, 2015 Rise Set
Actual Time
Civil Twilight
Nautical Twilight
Astronomical Twilight
Moon
Length of Visible Light
Length of Day
Tomorrow will be .
, % of the Moon is Illuminated

Today's Extremes

State Highs State Lows

Community

WunderPhotos

Upload Photos

1,850,686 photos uploaded!

WunderBlogs® & News

Nearby

Air Quality

  Air Quality AQ Index Pollutant
Not available.

Snow Depth

Station Depth Elevation

Earthquake Activity

City Distance Mag. Time & Date
Minimum magnitude displayed is 2.5.

Coastal Water Temperatures

Place Temperature

Stations

Nearby Weather Stations

Station Location Temp. Windchill Dew Point Humidity Wind Precip. Elev Updated Type